sensor_id;sensor_type;location;lat;lon;timestamp;pressure;altitude;pressure_sealevel;temperature;humidity
21980;BME280;11154;48.558;9.234;2023-05-01T00:01:06;97450.72;;;15.20;70.89
21980;BME280;11154;48.558;9.234;2023-05-01T00:03:10;97450.72;;;15.20;70.25
21980;BME280;11154;48.558;9.234;2023-05-01T00:05:13;97451.47;;;15.14;70.71
21980;BME280;11154;48.558;9.234;2023-05-01T00:07:15;97448.34;;;15.11;71.47
21980;BME280;11154;48.558;9.234;2023-05-01T00:09:17;97437.84;;;15.10;71.55
21980;BME280;11154;48.558;9.234;2023-05-01T00:11:19;97427.31;;;15.08;71.47
21980;BME280;11154;48.558;9.234;2023-05-01T00:13:21;97435.53;;;15.07;71.23
21980;BME280;11154;48.558;9.234;2023-05-01T00:15:23;97431.59;;;15.03;70.76
21980;BME280;11154;48.558;9.234;2023-05-01T00:17:25;97429.91;;;15.02;71.69
21980;BME280;11154;48.558;9.234;2023-05-01T00:19:28;97425.97;;;14.98;70.47
21980;BME280;11154;48.558;9.234;2023-05-01T00:21:30;97427.00;;;14.97;70.36
21980;BME280;11154;48.558;9.234;2023-05-01T00:23:32;97431.09;;;14.93;70.27
21980;BME280;11154;48.558;9.234;2023-05-01T00:25:34;97426.28;;;14.88;70.58
21980;BME280;11154;48.558;9.234;2023-05-01T00:27:35;97420.50;;;14.85;69.84
21980;BME280;11154;48.558;9.234;2023-05-01T00:29:37;97417.16;;;14.83;70.20
21980;BME280;11154;48.558;9.234;2023-05-01T00:31:39;97410.13;;;14.82;70.29
21980;BME280;11154;48.558;9.234;2023-05-01T00:33:41;97407.31;;;14.83;70.62
21980;BME280;11154;48.558;9.234;2023-05-01T00:35:44;97417.34;;;14.81;70.08
21980;BME280;11154;48.558;9.234;2023-05-01T00:37:46;97412.81;;;14.82;69.97
21980;BME280;11154;48.558;9.234;2023-05-01T00:39:48;97401.50;;;14.80;69.99
21980;BME280;11154;48.558;9.234;2023-05-01T00:41:50;97398.97;;;14.78;70.17
21980;BME280;11154;48.558;9.234;2023-05-01T00:43:52;97399.44;;;14.82;69.22
21980;BME280;11154;48.558;9.234;2023-05-01T00:45:54;97399.06;;;14.85;69.07
21980;BME280;11154;48.558;9.234;2023-05-01T00:47:55;97405.88;;;14.87;69.57
21980;BME280;11154;48.558;9.234;2023-05-01T00:49:58;97404.31;;;14.93;70.81
21980;BME280;11154;48.558;9.234;2023-05-01T00:52:01;97404.09;;;14.94;69.87
21980;BME280;11154;48.558;9.234;2023-05-01T00:54:04;97397.75;;;14.95;69.00
21980;BME280;11154;48.558;9.234;2023-05-01T00:56:06;97398.56;;;14.96;69.57
21980;BME280;11154;48.558;9.234;2023-05-01T00:58:09;97395.25;;;14.94;70.68
21980;BME280;11154;48.558;9.234;2023-05-01T01:00:11;97400.34;;;14.89;72.29
21980;BME280;11154;48.558;9.234;2023-05-01T01:02:13;97395.38;;;14.86;73.54
21980;BME280;11154;48.558;9.234;2023-05-01T01:04:15;97400.66;;;14.79;73.41
21980;BME280;11154;48.558;9.234;2023-05-01T01:06:22;97397.28;;;14.71;72.14
21980;BME280;11154;48.558;9.234;2023-05-01T01:08:32;97388.72;;;14.61;72.70
21980;BME280;11154;48.558;9.234;2023-05-01T01:10:41;97387.63;;;14.55;73.04
21980;BME280;11154;48.558;9.234;2023-05-01T01:12:49;97385.50;;;14.51;73.61
21980;BME280;11154;48.558;9.234;2023-05-01T01:14:57;97385.91;;;14.48;73.92
21980;BME280;11154;48.558;9.234;2023-05-01T01:17:10;97384.25;;;14.47;74.15
21980;BME280;11154;48.558;9.234;2023-05-01T01:19:34;97386.28;;;14.45;74.71
21980;BME280;11154;48.558;9.234;2023-05-01T01:21:46;97368.94;;;14.41;75.36
21980;BME280;11154;48.558;9.234;2023-05-01T01:24:20;97372.44;;;14.42;75.86
21980;BME280;11154;48.558;9.234;2023-05-01T01:26:32;97379.66;;;14.41;76.34
21980;BME280;11154;48.558;9.234;2023-05-01T01:29:00;97368.50;;;14.38;76.94
21980;BME280;11154;48.558;9.234;2023-05-01T01:31:09;97372.19;;;14.37;77.18
21980;BME280;11154;48.558;9.234;2023-05-01T01:33:44;97369.31;;;14.38;76.29
21980;BME280;11154;48.558;9.234;2023-05-01T01:35:54;97368.31;;;14.39;74.36
21980;BME280;11154;48.558;9.234;2023-05-01T01:38:01;97365.88;;;14.44;75.01
21980;BME280;11154;48.558;9.234;2023-05-01T01:40:07;97367.75;;;14.43;73.68
21980;BME280;11154;48.558;9.234;2023-05-01T01:42:14;97366.53;;;14.46;73.34
21980;BME280;11154;48.558;9.234;2023-05-01T01:44:23;97366.16;;;14.49;72.86
21980;BME280;11154;48.558;9.234;2023-05-01T01:46:31;97356.94;;;14.51;72.90
21980;BME280;11154;48.558;9.234;2023-05-01T01:48:39;97363.56;;;14.55;73.07
21980;BME280;11154;48.558;9.234;2023-05-01T01:50:44;97357.19;;;14.56;72.95
21980;BME280;11154;48.558;9.234;2023-05-01T01:52:48;97364.19;;;14.57;73.08
21980;BME280;11154;48.558;9.234;2023-05-01T01:54:53;97353.50;;;14.57;73.31
21980;BME280;11154;48.558;9.234;2023-05-01T01:56:58;97353.50;;;14.57;73.31
21980;BME280;11154;48.558;9.234;2023-05-01T01:59:04;97349.97;;;14.57;73.21
21980;BME280;11154;48.558;9.234;2023-05-01T02:01:07;97348.94;;;14.58;73.17
21980;BME280;11154;48.558;9.234;2023-05-01T02:03:10;97351.63;;;14.58;72.50
21980;BME280;11154;48.558;9.234;2023-05-01T02:05:15;97339.56;;;14.62;72.23
21980;BME280;11154;48.558;9.234;2023-05-01T02:07:19;97343.03;;;14.62;71.96
21980;BME280;11154;48.558;9.234;2023-05-01T02:09:24;97339.16;;;14.65;72.22
21980;BME280;11154;48.558;9.234;2023-05-01T02:11:28;97333.59;;;14.66;70.98
21980;BME280;11154;48.558;9.234;2023-05-01T02:13:31;97334.19;;;14.62;70.48
21980;BME280;11154;48.558;9.234;2023-05-01T02:15:33;97328.84;;;14.62;71.18
21980;BME280;11154;48.558;9.234;2023-05-01T02:17:37;97332.53;;;14.61;71.04
21980;BME280;11154;48.558;9.234;2023-05-01T02:19:38;97325.53;;;14.60;71.40
21980;BME280;11154;48.558;9.234;2023-05-01T02:21:41;97328.41;;;14.58;71.51
21980;BME280;11154;48.558;9.234;2023-05-01T02:23:45;97319.53;;;14.58;71.94
21980;BME280;11154;48.558;9.234;2023-05-01T02:25:49;97325.88;;;14.57;71.43
21980;BME280;11154;48.558;9.234;2023-05-01T02:27:56;97332.25;;;14.56;71.70
21980;BME280;11154;48.558;9.234;2023-05-01T02:29:58;97329.78;;;14.54;71.69
21980;BME280;11154;48.558;9.234;2023-05-01T02:32:00;97327.94;;;14.55;71.53
21980;BME280;11154;48.558;9.234;2023-05-01T02:34:02;97320.16;;;14.60;71.73
21980;BME280;11154;48.558;9.234;2023-05-01T02:36:04;97324.31;;;14.62;72.11
21980;BME280;11154;48.558;9.234;2023-05-01T02:38:06;97327.78;;;14.63;71.84
21980;BME280;11154;48.558;9.234;2023-05-01T02:40:10;97323.09;;;14.65;72.09
21980;BME280;11154;48.558;9.234;2023-05-01T02:42:15;97318.56;;;14.65;74.00
21980;BME280;11154;48.558;9.234;2023-05-01T02:44:18;97321.44;;;14.64;75.60
21980;BME280;11154;48.558;9.234;2023-05-01T02:46:23;97320.16;;;14.60;75.93
21980;BME280;11154;48.558;9.234;2023-05-01T02:48:27;97321.63;;;14.62;77.20
21980;BME280;11154;48.558;9.234;2023-05-01T02:50:30;97321.84;;;14.61;77.02
21980;BME280;11154;48.558;9.234;2023-05-01T02:52:32;97322.19;;;14.58;77.80
21980;BME280;11154;48.558;9.234;2023-05-01T02:54:35;97313.91;;;14.53;76.33
21980;BME280;11154;48.558;9.234;2023-05-01T02:56:38;97318.81;;;14.49;76.43
21980;BME280;11154;48.558;9.234;2023-05-01T02:58:40;97331.75;;;14.46;75.98
21980;BME280;11154;48.558;9.234;2023-05-01T03:00:42;97311.91;;;14.41;76.08
21980;BME280;11154;48.558;9.234;2023-05-01T03:02:45;97319.34;;;14.39;76.34
21980;BME280;11154;48.558;9.234;2023-05-01T03:04:46;97319.50;;;14.37;76.95
21980;BME280;11154;48.558;9.234;2023-05-01T03:06:49;97315.81;;;14.38;76.83
21980;BME280;11154;48.558;9.234;2023-05-01T03:08:50;97318.47;;;14.38;78.02
21980;BME280;11154;48.558;9.234;2023-05-01T03:10:52;97324.47;;;14.40;78.86
21980;BME280;11154;48.558;9.234;2023-05-01T03:12:55;97314.16;;;14.37;79.03
21980;BME280;11154;48.558;9.234;2023-05-01T03:14:57;97317.88;;;14.36;78.54
21980;BME280;11154;48.558;9.234;2023-05-01T03:16:59;97306.53;;;14.34;78.42
21980;BME280;11154;48.558;9.234;2023-05-01T03:19:01;97311.63;;;14.29;78.29
21980;BME280;11154;48.558;9.234;2023-05-01T03:21:03;97303.31;;;14.24;77.36
21980;BME280;11154;48.558;9.234;2023-05-01T03:23:04;97306.63;;;14.26;77.56
21980;BME280;11154;48.558;9.234;2023-05-01T03:25:07;97305.63;;;14.27;77.34
21980;BME280;11154;48.558;9.234;2023-05-01T03:27:09;97306.63;;;14.26;77.00
21980;BME280;11154;48.558;9.234;2023-05-01T03:29:13;97309.50;;;14.25;75.94
21980;BME280;11154;48.558;9.234;2023-05-01T03:31:14;97311.97;;;14.26;76.00
21980;BME280;11154;48.558;9.234;2023-05-01T03:33:16;97307.09;;;14.30;77.31
21980;BME280;11154;48.558;9.234;2023-05-01T03:35:18;97296.28;;;14.38;79.53
21980;BME280;11154;48.558;9.234;2023-05-01T03:37:19;97302.28;;;14.40;81.43
21980;BME280;11154;48.558;9.234;2023-05-01T03:39:21;97296.91;;;14.40;82.48
21980;BME280;11154;48.558;9.234;2023-05-01T03:41:23;97298.94;;;14.38;82.27
21980;BME280;11154;48.558;9.234;2023-05-01T03:43:25;97298.09;;;14.37;82.47
21980;BME280;11154;48.558;9.234;2023-05-01T03:45:28;97289.47;;;14.35;81.81
21980;BME280;11154;48.558;9.234;2023-05-01T03:47:30;97293.16;;;14.34;81.45
21980;BME280;11154;48.558;9.234;2023-05-01T03:49:32;97293.97;;;14.35;81.30
21980;BME280;11154;48.558;9.234;2023-05-01T03:51:33;97294.16;;;14.33;81.35
21980;BME280;11154;48.558;9.234;2023-05-01T03:53:35;97287.16;;;14.32;80.98
21980;BME280;11154;48.558;9.234;2023-05-01T03:55:37;97289.81;;;14.32;81.20
21980;BME280;11154;48.558;9.234;2023-05-01T03:57:39;97296.84;;;14.33;81.32
21980;BME280;11154;48.558;9.234;2023-05-01T03:59:41;97289.81;;;14.32;80.43
21980;BME280;11154;48.558;9.234;2023-05-01T04:01:45;97298.03;;;14.31;82.08
21980;BME280;11154;48.558;9.234;2023-05-01T04:03:47;97292.88;;;14.29;80.83
21980;BME280;11154;48.558;9.234;2023-05-01T04:05:48;97298.84;;;14.31;80.42
21980;BME280;11154;48.558;9.234;2023-05-01T04:07:50;97290.84;;;14.31;79.90
21980;BME280;11154;48.558;9.234;2023-05-01T04:09:52;97289.81;;;14.32;78.59
21980;BME280;11154;48.558;9.234;2023-05-01T04:11:54;97287.34;;;14.31;78.72
21980;BME280;11154;48.558;9.234;2023-05-01T04:13:55;97291.88;;;14.30;78.99
21980;BME280;11154;48.558;9.234;2023-05-01T04:15:57;97292.50;;;14.32;78.72
21980;BME280;11154;48.558;9.234;2023-05-01T04:18:00;97287.34;;;14.31;79.33
21980;BME280;11154;48.558;9.234;2023-05-01T04:20:03;97287.72;;;14.28;79.88
21980;BME280;11154;48.558;9.234;2023-05-01T04:22:05;97289.13;;;14.24;79.35
21980;BME280;11154;48.558;9.234;2023-05-01T04:24:07;97298.16;;;14.23;78.74
21980;BME280;11154;48.558;9.234;2023-05-01T04:26:09;97296.88;;;14.19;78.94
21980;BME280;11154;48.558;9.234;2023-05-01T04:28:10;97294.22;;;14.19;79.81
21980;BME280;11154;48.558;9.234;2023-05-01T04:30:12;97292.16;;;14.21;79.19
21980;BME280;11154;48.558;9.234;2023-05-01T04:32:14;97287.84;;;14.20;80.95
21980;BME280;11154;48.558;9.234;2023-05-01T04:34:17;97291.16;;;14.22;81.30
21980;BME280;11154;48.558;9.234;2023-05-01T04:36:19;97298.84;;;14.31;82.07
21980;BME280;11154;48.558;9.234;2023-05-01T04:38:21;97296.00;;;14.33;82.25
21980;BME280;11154;48.558;9.234;2023-05-01T04:40:23;97313.28;;;14.30;80.82
21980;BME280;11154;48.558;9.234;2023-05-01T04:42:29;97309.75;;;14.30;80.30
21980;BME280;11154;48.558;9.234;2023-05-01T04:44:31;97307.28;;;14.28;79.88
21980;BME280;11154;48.558;9.234;2023-05-01T04:46:35;97304.97;;;14.25;79.38
21980;BME280;11154;48.558;9.234;2023-05-01T04:48:36;97301.09;;;14.28;79.13
21980;BME280;11154;48.558;9.234;2023-05-01T04:50:39;97305.66;;;14.34;78.70
21980;BME280;11154;48.558;9.234;2023-05-01T04:52:41;97297.28;;;14.37;78.29
21980;BME280;11154;48.558;9.234;2023-05-01T04:54:43;97290.72;;;14.39;78.20
21980;BME280;11154;48.558;9.234;2023-05-01T04:56:44;97308.03;;;14.43;78.56
21980;BME280;11154;48.558;9.234;2023-05-01T04:58:46;97302.69;;;14.43;78.37
21980;BME280;11154;48.558;9.234;2023-05-01T05:00:48;97300.84;;;14.43;78.46
21980;BME280;11154;48.558;9.234;2023-05-01T05:02:49;97303.53;;;14.43;78.30
21980;BME280;11154;48.558;9.234;2023-05-01T05:04:51;97300.97;;;14.36;80.00
21980;BME280;11154;48.558;9.234;2023-05-01T05:06:55;97292.50;;;14.32;81.94
21980;BME280;11154;48.558;9.234;2023-05-01T05:08:56;97303.59;;;14.29;82.53
21980;BME280;11154;48.558;9.234;2023-05-01T05:10:58;97301.09;;;14.28;82.32
21980;BME280;11154;48.558;9.234;2023-05-01T05:13:00;97299.25;;;14.28;83.22
21980;BME280;11154;48.558;9.234;2023-05-01T05:15:02;97296.59;;;14.28;83.19
21980;BME280;11154;48.558;9.234;2023-05-01T05:17:04;97302.56;;;14.30;83.43
21980;BME280;11154;48.558;9.234;2023-05-01T05:19:05;97305.88;;;14.32;84.11
21980;BME280;11154;48.558;9.234;2023-05-01T05:21:07;97313.91;;;14.32;85.29
21980;BME280;11154;48.558;9.234;2023-05-01T05:23:11;97307.16;;;14.36;85.75
21980;BME280;11154;48.558;9.234;2023-05-01T05:25:12;97312.31;;;14.38;85.65
21980;BME280;11154;48.558;9.234;2023-05-01T05:27:15;97310.09;;;14.41;86.77
21980;BME280;11154;48.558;9.234;2023-05-01T05:29:17;97308.03;;;14.43;87.31
21980;BME280;11154;48.558;9.234;2023-05-01T05:31:18;97307.22;;;14.43;87.01
21980;BME280;11154;48.558;9.234;2023-05-01T05:33:20;97313.03;;;14.46;87.73
21980;BME280;11154;48.558;9.234;2023-05-01T05:35:24;97314.69;;;14.47;88.58
21980;BME280;11154;48.558;9.234;2023-05-01T05:37:26;97313.66;;;14.48;88.97
21980;BME280;11154;48.558;9.234;2023-05-01T05:39:29;97306.84;;;14.45;88.56
21980;BME280;11154;48.558;9.234;2023-05-01T05:41:32;97309.69;;;14.44;88.63
21980;BME280;11154;48.558;9.234;2023-05-01T05:43:33;97313.84;;;14.46;88.46
21980;BME280;11154;48.558;9.234;2023-05-01T05:45:35;97316.50;;;14.46;88.18
21980;BME280;11154;48.558;9.234;2023-05-01T05:47:37;97308.03;;;14.43;89.10
21980;BME280;11154;48.558;9.234;2023-05-01T05:49:39;97314.78;;;14.39;88.47
21980;BME280;11154;48.558;9.234;2023-05-01T05:51:40;97315.19;;;14.36;88.46
21980;BME280;11154;48.558;9.234;2023-05-01T05:53:42;97319.91;;;14.34;88.08
21980;BME280;11154;48.558;9.234;2023-05-01T05:55:45;97312.53;;;14.36;89.26
21980;BME280;11154;48.558;9.234;2023-05-01T05:57:47;97310.47;;;14.38;90.04
21980;BME280;11154;48.558;9.234;2023-05-01T05:59:49;97314.78;;;14.39;90.67
21980;BME280;11154;48.558;9.234;2023-05-01T06:01:50;97321.00;;;14.40;91.12
21980;BME280;11154;48.558;9.234;2023-05-01T06:03:52;97317.09;;;14.42;91.50
21980;BME280;11154;48.558;9.234;2023-05-01T06:05:54;97319.19;;;14.46;91.23
21980;BME280;11154;48.558;9.234;2023-05-01T06:07:55;97318.81;;;14.49;90.61
21980;BME280;11154;48.558;9.234;2023-05-01T06:09:57;97312.66;;;14.49;90.14
21980;BME280;11154;48.558;9.234;2023-05-01T06:12:05;97313.28;;;14.51;90.33
21980;BME280;11154;48.558;9.234;2023-05-01T06:14:06;97320.09;;;14.53;90.75
21980;BME280;11154;48.558;9.234;2023-05-01T06:16:08;97316.19;;;14.56;91.67
21980;BME280;11154;48.558;9.234;2023-05-01T06:18:10;97325.28;;;14.55;91.13
21980;BME280;11154;48.558;9.234;2023-05-01T06:20:12;97321.53;;;14.56;91.15
21980;BME280;11154;48.558;9.234;2023-05-01T06:22:14;97307.72;;;14.52;89.56
21980;BME280;11154;48.558;9.234;2023-05-01T06:24:15;97311.34;;;14.45;88.41
21980;BME280;11154;48.558;9.234;2023-05-01T06:26:17;97315.44;;;14.41;89.51
21980;BME280;11154;48.558;9.234;2023-05-01T06:28:20;97320.78;;;14.41;89.88
21980;BME280;11154;48.558;9.234;2023-05-01T06:30:22;97318.75;;;14.43;90.18
21980;BME280;11154;48.558;9.234;2023-05-01T06:32:24;97325.75;;;14.44;89.82
21980;BME280;11154;48.558;9.234;2023-05-01T06:34:26;97329.06;;;14.46;90.09
21980;BME280;11154;48.558;9.234;2023-05-01T06:36:27;97322.72;;;14.47;90.23
21980;BME280;11154;48.558;9.234;2023-05-01T06:38:29;97329.06;;;14.46;89.47
21980;BME280;11154;48.558;9.234;2023-05-01T06:40:32;97335.25;;;14.46;88.16
21980;BME280;11154;48.558;9.234;2023-05-01T06:42:34;97323.34;;;14.49;89.45
21980;BME280;11154;48.558;9.234;2023-05-01T06:44:37;97325.63;;;14.52;89.83
21980;BME280;11154;48.558;9.234;2023-05-01T06:46:39;97323.78;;;14.52;90.38
21980;BME280;11154;48.558;9.234;2023-05-01T06:48:41;97326.66;;;14.51;90.15
21980;BME280;11154;48.558;9.234;2023-05-01T06:50:42;97325.63;;;14.52;90.22
21980;BME280;11154;48.558;9.234;2023-05-01T06:52:44;97322.97;;;14.52;89.97
21980;BME280;11154;48.558;9.234;2023-05-01T06:54:46;97332.91;;;14.58;91.12
21980;BME280;11154;48.558;9.234;2023-05-01T06:56:47;97333.78;;;14.65;91.39
21980;BME280;11154;48.558;9.234;2023-05-01T06:58:49;97333.59;;;14.66;89.47
21980;BME280;11154;48.558;9.234;2023-05-01T07:00:52;97338.38;;;14.71;89.80
21980;BME280;11154;48.558;9.234;2023-05-01T07:02:54;97329.13;;;14.73;89.84
21980;BME280;11154;48.558;9.234;2023-05-01T07:04:56;97331.91;;;14.80;90.87
21980;BME280;11154;48.558;9.234;2023-05-01T07:06:58;97337.25;;;14.80;90.64
21980;BME280;11154;48.558;9.234;2023-05-01T07:09:00;97332.72;;;14.80;89.85
21980;BME280;11154;48.558;9.234;2023-05-01T07:11:02;97339.53;;;14.83;89.49
21980;BME280;11154;48.558;9.234;2023-05-01T07:13:03;97331.50;;;14.83;89.18
21980;BME280;11154;48.558;9.234;2023-05-01T07:15:06;97340.38;;;14.83;90.55
21980;BME280;11154;48.558;9.234;2023-05-01T07:17:09;97337.25;;;14.80;91.05
21980;BME280;11154;48.558;9.234;2023-05-01T07:19:11;97333.94;;;14.78;90.87
21980;BME280;11154;48.558;9.234;2023-05-01T07:21:13;97338.63;;;14.76;90.37
21980;BME280;11154;48.558;9.234;2023-05-01T07:23:15;97335.13;;;14.75;91.44
21980;BME280;11154;48.558;9.234;2023-05-01T07:25:17;97345.00;;;14.75;91.78
21980;BME280;11154;48.558;9.234;2023-05-01T07:27:19;97336.97;;;14.75;91.77
21980;BME280;11154;48.558;9.234;2023-05-01T07:29:21;97335.78;;;14.77;92.59
21980;BME280;11154;48.558;9.234;2023-05-01T07:31:23;97336.22;;;14.81;93.78
21980;BME280;11154;48.558;9.234;2023-05-01T07:33:25;97327.75;;;14.77;92.67
21980;BME280;11154;48.558;9.234;2023-05-01T07:35:27;97332.06;;;14.78;92.14
21980;BME280;11154;48.558;9.234;2023-05-01T07:37:29;97335.94;;;14.76;91.29
21980;BME280;11154;48.558;9.234;2023-05-01T07:39:31;97331.03;;;14.79;91.95
21980;BME280;11154;48.558;9.234;2023-05-01T07:41:32;97329.38;;;14.78;91.87
21980;BME280;11154;48.558;9.234;2023-05-01T07:43:34;97328.63;;;14.84;90.95
21980;BME280;11154;48.558;9.234;2023-05-01T07:45:36;97322.88;;;14.87;91.35
21980;BME280;11154;48.558;9.234;2023-05-01T07:47:37;97326.25;;;14.96;91.98
21980;BME280;11154;48.558;9.234;2023-05-01T07:49:41;97333.72;;;15.00;91.99
21980;BME280;11154;48.558;9.234;2023-05-01T07:51:42;97328.38;;;15.00;92.73
21980;BME280;11154;48.558;9.234;2023-05-01T07:53:44;97332.06;;;14.99;92.62
21980;BME280;11154;48.558;9.234;2023-05-01T07:55:47;97337.41;;;14.99;92.67
21980;BME280;11154;48.558;9.234;2023-05-01T07:57:49;97334.09;;;14.97;92.22
21980;BME280;11154;48.558;9.234;2023-05-01T07:59:53;97335.94;;;14.97;92.74
21980;BME280;11154;48.558;9.234;2023-05-01T08:01:55;97327.91;;;14.97;93.04
21980;BME280;11154;48.558;9.234;2023-05-01T08:03:57;97331.25;;;14.99;93.29
21980;BME280;11154;48.558;9.234;2023-05-01T08:06:00;97340.94;;;15.00;92.42
21980;BME280;11154;48.558;9.234;2023-05-01T08:08:02;97330.47;;;15.05;93.48
21980;BME280;11154;48.558;9.234;2023-05-01T08:10:04;97323.88;;;15.07;93.23
21980;BME280;11154;48.558;9.234;2023-05-01T08:12:06;97326.16;;;15.10;92.69
21980;BME280;11154;48.558;9.234;2023-05-01T08:14:08;97329.28;;;15.13;93.49
21980;BME280;11154;48.558;9.234;2023-05-01T08:16:10;97333.38;;;15.10;93.89
21980;BME280;11154;48.558;9.234;2023-05-01T08:18:12;97325.56;;;15.08;93.92
21980;BME280;11154;48.558;9.234;2023-05-01T08:20:19;97324.13;;;15.12;95.33
21980;BME280;11154;48.558;9.234;2023-05-01T08:22:22;97326.81;;;15.12;95.24
21980;BME280;11154;48.558;9.234;2023-05-01T08:24:24;97328.47;;;15.13;94.85
21980;BME280;11154;48.558;9.234;2023-05-01T08:26:25;97326.81;;;15.12;94.55
21980;BME280;11154;48.558;9.234;2023-05-01T08:28:27;97333.81;;;15.13;94.39
21980;BME280;11154;48.558;9.234;2023-05-01T08:30:29;97322.47;;;15.11;93.91
21980;BME280;11154;48.558;9.234;2023-05-01T08:32:31;97319.22;;;15.15;94.89
21980;BME280;11154;48.558;9.234;2023-05-01T08:34:32;97320.13;;;15.22;95.90
21980;BME280;11154;48.558;9.234;2023-05-01T08:36:35;97322.44;;;15.25;95.69
21980;BME280;11154;48.558;9.234;2023-05-01T08:38:38;97325.94;;;15.32;96.61
21980;BME280;11154;48.558;9.234;2023-05-01T08:40:44;97328.63;;;15.32;96.25
21980;BME280;11154;48.558;9.234;2023-05-01T08:42:47;97326.25;;;15.44;98.76
21980;BME280;11154;48.558;9.234;2023-05-01T08:44:51;97321.09;;;15.42;96.33
21980;BME280;11154;48.558;9.234;2023-05-01T08:47:04;97325.47;;;15.50;96.74
21980;BME280;11154;48.558;9.234;2023-05-01T08:49:08;97319.97;;;15.58;96.58
21980;BME280;11154;48.558;9.234;2023-05-01T08:51:13;97319.97;;;15.64;96.44
21980;BME280;11154;48.558;9.234;2023-05-01T08:53:20;97328.44;;;15.68;95.47
21980;BME280;11154;48.558;9.234;2023-05-01T08:55:24;97315.75;;;15.76;95.97
21980;BME280;11154;48.558;9.234;2023-05-01T08:57:29;97319.66;;;15.80;95.37
21980;BME280;11154;48.558;9.234;2023-05-01T08:59:33;97323.81;;;15.83;93.63
21980;BME280;11154;48.558;9.234;2023-05-01T09:01:36;97329.81;;;15.91;92.92
21980;BME280;11154;48.558;9.234;2023-05-01T09:03:38;97320.38;;;15.95;92.52
21980;BME280;11154;48.558;9.234;2023-05-01T09:05:41;97321.63;;;15.99;91.73
21980;BME280;11154;48.558;9.234;2023-05-01T09:07:43;97325.75;;;16.01;92.00
21980;BME280;11154;48.558;9.234;2023-05-01T09:09:46;97323.94;;;16.15;93.59
21980;BME280;11154;48.558;9.234;2023-05-01T09:11:49;97323.38;;;16.26;93.54
21980;BME280;11154;48.558;9.234;2023-05-01T09:13:51;97331.22;;;16.27;90.95
21980;BME280;11154;48.558;9.234;2023-05-01T09:15:53;97322.22;;;16.48;90.27
21980;BME280;11154;48.558;9.234;2023-05-01T09:17:55;97315.44;;;16.52;91.27
21980;BME280;11154;48.558;9.234;2023-05-01T09:20:00;97311.50;;;16.48;89.67
21980;BME280;11154;48.558;9.234;2023-05-01T09:22:04;97314.59;;;16.51;88.34
21980;BME280;11154;48.558;9.234;2023-05-01T09:24:05;97315.22;;;16.53;87.97
21980;BME280;11154;48.558;9.234;2023-05-01T09:26:07;97312.97;;;16.57;87.71
21980;BME280;11154;48.558;9.234;2023-05-01T09:28:10;97316.28;;;16.65;90.83
21980;BME280;11154;48.558;9.234;2023-05-01T09:30:29;97317.72;;;16.67;88.38
21980;BME280;11154;48.558;9.234;2023-05-01T09:32:31;97318.38;;;16.69;87.02
21980;BME280;11154;48.558;9.234;2023-05-01T09:34:33;97315.69;;;16.82;89.14
21980;BME280;11154;48.558;9.234;2023-05-01T09:36:35;97314.88;;;16.88;89.47
21980;BME280;11154;48.558;9.234;2023-05-01T09:38:42;97316.75;;;16.94;89.43
21980;BME280;11154;48.558;9.234;2023-05-01T09:40:44;97312.59;;;16.98;88.78
21980;BME280;11154;48.558;9.234;2023-05-01T09:42:49;97310.16;;;17.03;88.96
21980;BME280;11154;48.558;9.234;2023-05-01T09:44:53;97314.06;;;17.07;87.20
21980;BME280;11154;48.558;9.234;2023-05-01T09:46:54;97310.75;;;17.12;87.08
21980;BME280;11154;48.558;9.234;2023-05-01T09:48:57;97304.53;;;17.11;84.96
21980;BME280;11154;48.558;9.234;2023-05-01T09:50:59;97304.97;;;17.21;86.36
21980;BME280;11154;48.558;9.234;2023-05-01T09:53:02;97300.00;;;17.25;84.66
21980;BME280;11154;48.558;9.234;2023-05-01T09:55:12;97302.91;;;17.36;85.46
21980;BME280;11154;48.558;9.234;2023-05-01T09:57:14;97299.19;;;17.37;83.68
21980;BME280;11154;48.558;9.234;2023-05-01T09:59:17;97305.56;;;17.49;85.40
21980;BME280;11154;48.558;9.234;2023-05-01T10:01:36;97301.22;;;17.54;84.16
21980;BME280;11154;48.558;9.234;2023-05-01T10:03:39;97298.94;;;17.58;83.80
21980;BME280;11154;48.558;9.234;2023-05-01T10:05:41;97296.63;;;17.68;83.68
21980;BME280;11154;48.558;9.234;2023-05-01T10:08:04;97294.13;;;17.79;82.84
21980;BME280;11154;48.558;9.234;2023-05-01T10:10:16;97292.06;;;17.81;79.54
21980;BME280;11154;48.558;9.234;2023-05-01T10:12:22;97287.28;;;17.90;79.78
21980;BME280;11154;48.558;9.234;2023-05-01T10:14:25;97296.56;;;17.94;80.44
21980;BME280;11154;48.558;9.234;2023-05-01T10:16:30;97290.38;;;17.93;77.70
21980;BME280;11154;48.558;9.234;2023-05-01T10:18:32;97288.25;;;18.02;79.35
21980;BME280;11154;48.558;9.234;2023-05-01T10:20:34;97291.56;;;18.04;80.11
21980;BME280;11154;48.558;9.234;2023-05-01T10:22:36;97294.22;;;18.10;79.82
21980;BME280;11154;48.558;9.234;2023-05-01T10:24:38;97302.09;;;18.11;79.03
21980;BME280;11154;48.558;9.234;2023-05-01T10:26:40;97302.50;;;18.08;76.66
21980;BME280;11154;48.558;9.234;2023-05-01T10:28:44;97292.97;;;18.12;79.37
21980;BME280;11154;48.558;9.234;2023-05-01T10:30:48;97294.63;;;18.13;77.16
21980;BME280;11154;48.558;9.234;2023-05-01T10:32:51;97292.16;;;18.12;78.34
21980;BME280;11154;48.558;9.234;2023-05-01T10:34:57;97293.59;;;18.14;77.09
21980;BME280;11154;48.558;9.234;2023-05-01T10:37:01;97297.31;;;18.13;77.79
21980;BME280;11154;48.558;9.234;2023-05-01T10:39:04;97293.16;;;18.17;81.19
21980;BME280;11154;48.558;9.234;2023-05-01T10:41:06;97290.47;;;18.17;79.20
21980;BME280;11154;48.558;9.234;2023-05-01T10:43:16;97294.78;;;18.18;79.68
21980;BME280;11154;48.558;9.234;2023-05-01T10:45:28;97293.16;;;18.17;77.79
21980;BME280;11154;48.558;9.234;2023-05-01T10:47:45;97298.56;;;18.17;76.29
21980;BME280;11154;48.558;9.234;2023-05-01T10:50:05;97299.16;;;18.26;78.51
21980;BME280;11154;48.558;9.234;2023-05-01T10:52:07;97299.78;;;18.21;77.16
21980;BME280;11154;48.558;9.234;2023-05-01T10:54:22;97291.09;;;18.19;77.50